sensor_id;sensor_type;location;lat;lon;timestamp;P1;durP1;ratioP1;P2;durP2;ratioP2
62523;SDS011;53689;56.878;60.672;2022-12-05T00:00:53;9.25;;;4.90;;
62523;SDS011;53689;56.878;60.672;2022-12-05T00:05:48;8.73;;;4.68;;
62523;SDS011;53689;56.878;60.672;2022-12-05T00:08:17;8.07;;;4.68;;
62523;SDS011;53689;56.878;60.672;2022-12-05T00:10:44;8.68;;;4.47;;
62523;SDS011;53689;56.878;60.672;2022-12-05T00:13:12;8.25;;;4.40;;
62523;SDS011;53689;56.878;60.672;2022-12-05T00:15:39;7.80;;;4.50;;
62523;SDS011;53689;56.878;60.672;2022-12-05T00:18:08;7.05;;;4.43;;
62523;SDS011;53689;56.878;60.672;2022-12-05T00:20:36;8.48;;;5.30;;
62523;SDS011;53689;56.878;60.672;2022-12-05T00:23:03;9.60;;;5.18;;
62523;SDS011;53689;56.878;60.672;2022-12-05T00:25:31;8.60;;;5.15;;
62523;SDS011;53689;56.878;60.672;2022-12-05T00:28:01;9.02;;;4.90;;
62523;SDS011;53689;56.878;60.672;2022-12-05T00:30:29;7.90;;;4.85;;
62523;SDS011;53689;56.878;60.672;2022-12-05T00:32:56;7.78;;;4.50;;
62523;SDS011;53689;56.878;60.672;2022-12-05T00:35:25;7.22;;;4.78;;
62523;SDS011;53689;56.878;60.672;2022-12-05T00:37:53;9.73;;;4.50;;
62523;SDS011;53689;56.878;60.672;2022-12-05T00:40:20;7.13;;;4.63;;
62523;SDS011;53689;56.878;60.672;2022-12-05T00:42:47;8.45;;;4.22;;
62523;SDS011;53689;56.878;60.672;2022-12-05T00:45:18;9.70;;;5.20;;
62523;SDS011;53689;56.878;60.672;2022-12-05T00:47:46;8.18;;;5.00;;
62523;SDS011;53689;56.878;60.672;2022-12-05T00:50:13;8.95;;;4.70;;
62523;SDS011;53689;56.878;60.672;2022-12-05T00:52:42;10.00;;;5.20;;
62523;SDS011;53689;56.878;60.672;2022-12-05T00:55:10;9.13;;;5.17;;
62523;SDS011;53689;56.878;60.672;2022-12-05T00:57:37;7.43;;;4.15;;
62523;SDS011;53689;56.878;60.672;2022-12-05T01:00:05;9.00;;;4.57;;
62523;SDS011;53689;56.878;60.672;2022-12-05T01:02:34;10.97;;;5.77;;
62523;SDS011;53689;56.878;60.672;2022-12-05T01:05:01;7.30;;;4.32;;
62523;SDS011;53689;56.878;60.672;2022-12-05T01:07:29;8.25;;;4.47;;
62523;SDS011;53689;56.878;60.672;2022-12-05T01:09:59;8.00;;;4.68;;
62523;SDS011;53689;56.878;60.672;2022-12-05T01:12:26;7.03;;;4.35;;
62523;SDS011;53689;56.878;60.672;2022-12-05T01:14:54;8.95;;;5.65;;
62523;SDS011;53689;56.878;60.672;2022-12-05T01:17:21;8.05;;;4.32;;
62523;SDS011;53689;56.878;60.672;2022-12-05T01:19:49;6.78;;;4.25;;
62523;SDS011;53689;56.878;60.672;2022-12-05T01:22:16;7.07;;;4.20;;
62523;SDS011;53689;56.878;60.672;2022-12-05T01:24:44;9.18;;;5.20;;
62523;SDS011;53689;56.878;60.672;2022-12-05T01:27:13;7.55;;;4.30;;
62523;SDS011;53689;56.878;60.672;2022-12-05T01:29:41;7.53;;;3.92;;
62523;SDS011;53689;56.878;60.672;2022-12-05T01:32:08;6.97;;;4.35;;
62523;SDS011;53689;56.878;60.672;2022-12-05T01:34:36;9.23;;;4.93;;
62523;SDS011;53689;56.878;60.672;2022-12-05T01:37:03;10.93;;;5.00;;
62523;SDS011;53689;56.878;60.672;2022-12-05T01:39:31;7.45;;;4.45;;
62523;SDS011;53689;56.878;60.672;2022-12-05T01:41:58;8.05;;;4.68;;
62523;SDS011;53689;56.878;60.672;2022-12-05T01:47:43;8.00;;;4.53;;
62523;SDS011;53689;56.878;60.672;2022-12-05T01:50:11;8.88;;;4.80;;
62523;SDS011;53689;56.878;60.672;2022-12-05T01:52:39;7.15;;;3.97;;
62523;SDS011;53689;56.878;60.672;2022-12-05T01:55:09;6.65;;;4.13;;
62523;SDS011;53689;56.878;60.672;2022-12-05T01:57:41;9.80;;;5.15;;
62523;SDS011;53689;56.878;60.672;2022-12-05T02:00:09;11.85;;;6.70;;
62523;SDS011;53689;56.878;60.672;2022-12-05T02:02:39;9.18;;;4.32;;
62523;SDS011;53689;56.878;60.672;2022-12-05T02:05:13;6.55;;;4.18;;
62523;SDS011;53689;56.878;60.672;2022-12-05T02:07:44;8.07;;;4.53;;
62523;SDS011;53689;56.878;60.672;2022-12-05T02:10:14;7.93;;;4.13;;
62523;SDS011;53689;56.878;60.672;2022-12-05T02:12:41;7.28;;;4.47;;
62523;SDS011;53689;56.878;60.672;2022-12-05T02:15:15;7.50;;;3.97;;
62523;SDS011;53689;56.878;60.672;2022-12-05T02:17:51;7.60;;;4.25;;
62523;SDS011;53689;56.878;60.672;2022-12-05T02:20:31;9.07;;;4.40;;
62523;SDS011;53689;56.878;60.672;2022-12-05T02:26:13;6.97;;;3.95;;
62523;SDS011;53689;56.878;60.672;2022-12-05T02:32:19;7.45;;;3.92;;
62523;SDS011;53689;56.878;60.672;2022-12-05T02:34:54;7.32;;;4.55;;
62523;SDS011;53689;56.878;60.672;2022-12-05T02:37:30;8.50;;;4.30;;
62523;SDS011;53689;56.878;60.672;2022-12-05T02:40:08;8.27;;;4.72;;
62523;SDS011;53689;56.878;60.672;2022-12-05T02:42:40;8.70;;;4.25;;
62523;SDS011;53689;56.878;60.672;2022-12-05T02:45:16;8.45;;;4.22;;
62523;SDS011;53689;56.878;60.672;2022-12-05T02:47:49;6.55;;;4.22;;
62523;SDS011;53689;56.878;60.672;2022-12-05T02:50:19;6.45;;;4.20;;
62523;SDS011;53689;56.878;60.672;2022-12-05T02:52:50;8.45;;;4.60;;
62523;SDS011;53689;56.878;60.672;2022-12-05T02:55:22;7.43;;;4.63;;
62523;SDS011;53689;56.878;60.672;2022-12-05T02:57:53;7.97;;;4.10;;
62523;SDS011;53689;56.878;60.672;2022-12-05T03:00:27;7.80;;;3.95;;
62523;SDS011;53689;56.878;60.672;2022-12-05T03:02:56;9.07;;;4.60;;
62523;SDS011;53689;56.878;60.672;2022-12-05T03:05:29;7.97;;;4.57;;
62523;SDS011;53689;56.878;60.672;2022-12-05T03:08:04;7.25;;;4.38;;
62523;SDS011;53689;56.878;60.672;2022-12-05T03:10:34;9.43;;;4.75;;
62523;SDS011;53689;56.878;60.672;2022-12-05T03:13:07;7.25;;;4.35;;
62523;SDS011;53689;56.878;60.672;2022-12-05T03:15:40;6.53;;;4.38;;
62523;SDS011;53689;56.878;60.672;2022-12-05T03:18:15;8.18;;;4.28;;
62523;SDS011;53689;56.878;60.672;2022-12-05T03:20:51;9.93;;;5.72;;
62523;SDS011;53689;56.878;60.672;2022-12-05T03:23:24;8.43;;;4.57;;
62523;SDS011;53689;56.878;60.672;2022-12-05T03:26:00;10.63;;;4.93;;
62523;SDS011;53689;56.878;60.672;2022-12-05T03:28:33;8.82;;;5.60;;
62523;SDS011;53689;56.878;60.672;2022-12-05T03:31:12;11.10;;;5.72;;
62523;SDS011;53689;56.878;60.672;2022-12-05T03:33:45;9.60;;;4.55;;
62523;SDS011;53689;56.878;60.672;2022-12-05T03:36:16;10.35;;;4.28;;
62523;SDS011;53689;56.878;60.672;2022-12-05T03:38:49;9.10;;;4.28;;
62523;SDS011;53689;56.878;60.672;2022-12-05T03:41:24;11.07;;;5.32;;
62523;SDS011;53689;56.878;60.672;2022-12-05T03:43:59;9.50;;;4.63;;
62523;SDS011;53689;56.878;60.672;2022-12-05T03:46:33;9.18;;;5.00;;
62523;SDS011;53689;56.878;60.672;2022-12-05T03:49:08;10.25;;;4.93;;
62523;SDS011;53689;56.878;60.672;2022-12-05T03:51:42;8.32;;;4.97;;
62523;SDS011;53689;56.878;60.672;2022-12-05T03:54:16;9.02;;;5.03;;
62523;SDS011;53689;56.878;60.672;2022-12-05T03:56:49;8.38;;;4.45;;
62523;SDS011;53689;56.878;60.672;2022-12-05T03:59:21;11.25;;;5.60;;
62523;SDS011;53689;56.878;60.672;2022-12-05T04:01:56;12.85;;;4.93;;
62523;SDS011;53689;56.878;60.672;2022-12-05T04:04:27;11.77;;;5.30;;
62523;SDS011;53689;56.878;60.672;2022-12-05T04:06:59;9.52;;;5.00;;
62523;SDS011;53689;56.878;60.672;2022-12-05T04:09:30;10.55;;;5.00;;
62523;SDS011;53689;56.878;60.672;2022-12-05T04:12:03;16.42;;;6.85;;
62523;SDS011;53689;56.878;60.672;2022-12-05T04:14:36;9.70;;;4.57;;
62523;SDS011;53689;56.878;60.672;2022-12-05T04:17:09;13.48;;;5.40;;
62523;SDS011;53689;56.878;60.672;2022-12-05T04:19:45;9.38;;;5.07;;
62523;SDS011;53689;56.878;60.672;2022-12-05T04:22:13;11.02;;;6.13;;
62523;SDS011;53689;56.878;60.672;2022-12-05T04:24:41;12.13;;;6.18;;
62523;SDS011;53689;56.878;60.672;2022-12-05T04:27:11;10.75;;;5.70;;
62523;SDS011;53689;56.878;60.672;2022-12-05T04:29:51;9.50;;;5.38;;
62523;SDS011;53689;56.878;60.672;2022-12-05T04:32:25;11.48;;;5.88;;
62523;SDS011;53689;56.878;60.672;2022-12-05T04:35:02;9.95;;;5.38;;
62523;SDS011;53689;56.878;60.672;2022-12-05T04:37:33;8.98;;;5.50;;
62523;SDS011;53689;56.878;60.672;2022-12-05T04:40:07;10.15;;;5.57;;
62523;SDS011;53689;56.878;60.672;2022-12-05T04:42:38;14.18;;;5.63;;
62523;SDS011;53689;56.878;60.672;2022-12-05T04:45:09;10.98;;;5.80;;
62523;SDS011;53689;56.878;60.672;2022-12-05T04:47:40;12.38;;;5.57;;
62523;SDS011;53689;56.878;60.672;2022-12-05T04:50:14;10.98;;;5.07;;
62523;SDS011;53689;56.878;60.672;2022-12-05T04:52:44;12.85;;;6.13;;
62523;SDS011;53689;56.878;60.672;2022-12-05T04:55:16;9.43;;;5.18;;
62523;SDS011;53689;56.878;60.672;2022-12-05T04:57:48;10.93;;;5.07;;
62523;SDS011;53689;56.878;60.672;2022-12-05T05:00:26;14.80;;;6.57;;
62523;SDS011;53689;56.878;60.672;2022-12-05T05:02:57;12.77;;;6.43;;
62523;SDS011;53689;56.878;60.672;2022-12-05T05:05:31;8.40;;;3.88;;
62523;SDS011;53689;56.878;60.672;2022-12-05T05:08:02;15.95;;;6.45;;
62523;SDS011;53689;56.878;60.672;2022-12-05T05:10:31;10.95;;;5.15;;
62523;SDS011;53689;56.878;60.672;2022-12-05T05:13:01;13.23;;;7.03;;
62523;SDS011;53689;56.878;60.672;2022-12-05T05:15:29;17.55;;;7.20;;
62523;SDS011;53689;56.878;60.672;2022-12-05T05:17:56;16.30;;;6.20;;
62523;SDS011;53689;56.878;60.672;2022-12-05T05:20:24;17.55;;;6.20;;
62523;SDS011;53689;56.878;60.672;2022-12-05T05:22:54;14.85;;;6.25;;
62523;SDS011;53689;56.878;60.672;2022-12-05T05:25:23;17.95;;;7.35;;
62523;SDS011;53689;56.878;60.672;2022-12-05T05:27:52;18.30;;;7.13;;
62523;SDS011;53689;56.878;60.672;2022-12-05T05:30:23;18.55;;;8.18;;
62523;SDS011;53689;56.878;60.672;2022-12-05T05:32:51;15.57;;;7.30;;
62523;SDS011;53689;56.878;60.672;2022-12-05T05:35:19;18.83;;;8.65;;
62523;SDS011;53689;56.878;60.672;2022-12-05T05:37:46;18.73;;;8.63;;
62523;SDS011;53689;56.878;60.672;2022-12-05T05:40:16;15.82;;;8.75;;
62523;SDS011;53689;56.878;60.672;2022-12-05T05:45:13;24.70;;;8.63;;
62523;SDS011;53689;56.878;60.672;2022-12-05T05:47:41;16.10;;;7.95;;
62523;SDS011;53689;56.878;60.672;2022-12-05T05:50:10;19.75;;;9.02;;
62523;SDS011;53689;56.878;60.672;2022-12-05T05:52:45;19.30;;;8.57;;
62523;SDS011;53689;56.878;60.672;2022-12-05T05:55:12;23.10;;;9.27;;
62523;SDS011;53689;56.878;60.672;2022-12-05T05:57:42;17.35;;;8.85;;
62523;SDS011;53689;56.878;60.672;2022-12-05T06:00:09;15.30;;;8.43;;
62523;SDS011;53689;56.878;60.672;2022-12-05T06:02:38;19.50;;;8.70;;
62523;SDS011;53689;56.878;60.672;2022-12-05T06:05:06;20.80;;;8.75;;
62523;SDS011;53689;56.878;60.672;2022-12-05T06:07:34;15.48;;;8.80;;
62523;SDS011;53689;56.878;60.672;2022-12-05T06:10:02;19.15;;;8.10;;
62523;SDS011;53689;56.878;60.672;2022-12-05T06:12:33;17.70;;;9.02;;
62523;SDS011;53689;56.878;60.672;2022-12-05T06:15:02;18.65;;;9.25;;
62523;SDS011;53689;56.878;60.672;2022-12-05T06:17:30;20.35;;;9.30;;
62523;SDS011;53689;56.878;60.672;2022-12-05T06:19:58;20.55;;;9.25;;
62523;SDS011;53689;56.878;60.672;2022-12-05T06:22:26;17.58;;;9.70;;
62523;SDS011;53689;56.878;60.672;2022-12-05T06:24:55;18.75;;;9.40;;
62523;SDS011;53689;56.878;60.672;2022-12-05T06:27:22;16.88;;;8.88;;
62523;SDS011;53689;56.878;60.672;2022-12-05T06:29:50;19.98;;;11.52;;
62523;SDS011;53689;56.878;60.672;2022-12-05T06:32:19;18.67;;;10.40;;
62523;SDS011;53689;56.878;60.672;2022-12-05T06:34:47;16.27;;;8.88;;
62523;SDS011;53689;56.878;60.672;2022-12-05T06:37:14;14.75;;;8.85;;
62523;SDS011;53689;56.878;60.672;2022-12-05T06:39:42;16.10;;;8.98;;
62523;SDS011;53689;56.878;60.672;2022-12-05T06:42:09;20.52;;;11.10;;
62523;SDS011;53689;56.878;60.672;2022-12-05T06:44:37;20.48;;;10.52;;
62523;SDS011;53689;56.878;60.672;2022-12-05T06:47:04;17.92;;;9.85;;
62523;SDS011;53689;56.878;60.672;2022-12-05T06:49:33;15.20;;;9.80;;
62523;SDS011;53689;56.878;60.672;2022-12-05T06:52:04;18.85;;;10.25;;
62523;SDS011;53689;56.878;60.672;2022-12-05T06:54:31;20.10;;;10.07;;
62523;SDS011;53689;56.878;60.672;2022-12-05T06:56:59;21.92;;;10.77;;
62523;SDS011;53689;56.878;60.672;2022-12-05T06:59:27;20.58;;;11.75;;
62523;SDS011;53689;56.878;60.672;2022-12-05T07:01:54;20.33;;;11.35;;
62523;SDS011;53689;56.878;60.672;2022-12-05T07:04:22;20.88;;;11.02;;
62523;SDS011;53689;56.878;60.672;2022-12-05T07:06:52;18.58;;;11.93;;
62523;SDS011;53689;56.878;60.672;2022-12-05T07:09:21;25.25;;;11.65;;
62523;SDS011;53689;56.878;60.672;2022-12-05T07:11:52;18.75;;;10.65;;
62523;SDS011;53689;56.878;60.672;2022-12-05T07:14:19;23.20;;;12.95;;
62523;SDS011;53689;56.878;60.672;2022-12-05T07:17:07;21.70;;;10.40;;
62523;SDS011;53689;56.878;60.672;2022-12-05T07:19:34;24.45;;;11.50;;
62523;SDS011;53689;56.878;60.672;2022-12-05T07:22:04;24.67;;;11.13;;
62523;SDS011;53689;56.878;60.672;2022-12-05T07:24:39;18.50;;;10.05;;
62523;SDS011;53689;56.878;60.672;2022-12-05T07:27:07;22.40;;;10.65;;
62523;SDS011;53689;56.878;60.672;2022-12-05T07:29:35;21.13;;;10.35;;
62523;SDS011;53689;56.878;60.672;2022-12-05T07:32:02;22.05;;;9.45;;
62523;SDS011;53689;56.878;60.672;2022-12-05T07:34:30;21.58;;;10.15;;
62523;SDS011;53689;56.878;60.672;2022-12-05T07:36:58;17.90;;;9.80;;
62523;SDS011;53689;56.878;60.672;2022-12-05T07:39:28;18.33;;;10.68;;
62523;SDS011;53689;56.878;60.672;2022-12-05T07:41:55;19.40;;;10.20;;
62523;SDS011;53689;56.878;60.672;2022-12-05T07:44:24;17.02;;;10.57;;
62523;SDS011;53689;56.878;60.672;2022-12-05T07:46:51;27.38;;;13.07;;
62523;SDS011;53689;56.878;60.672;2022-12-05T07:49:19;29.13;;;11.70;;
62523;SDS011;53689;56.878;60.672;2022-12-05T07:51:47;23.02;;;11.35;;
62523;SDS011;53689;56.878;60.672;2022-12-05T07:54:15;18.35;;;11.07;;
62523;SDS011;53689;56.878;60.672;2022-12-05T07:56:44;20.55;;;9.63;;
62523;SDS011;53689;56.878;60.672;2022-12-05T07:59:13;20.15;;;10.43;;
62523;SDS011;53689;56.878;60.672;2022-12-05T08:01:41;17.63;;;9.90;;
62523;SDS011;53689;56.878;60.672;2022-12-05T08:04:09;20.05;;;10.60;;
62523;SDS011;53689;56.878;60.672;2022-12-05T08:06:41;19.45;;;10.80;;
62523;SDS011;53689;56.878;60.672;2022-12-05T08:09:09;19.67;;;11.48;;
62523;SDS011;53689;56.878;60.672;2022-12-05T08:11:36;22.45;;;11.63;;
62523;SDS011;53689;56.878;60.672;2022-12-05T08:14:06;18.67;;;11.07;;
62523;SDS011;53689;56.878;60.672;2022-12-05T08:16:34;23.73;;;13.15;;
62523;SDS011;53689;56.878;60.672;2022-12-05T08:19:02;25.13;;;13.63;;
62523;SDS011;53689;56.878;60.672;2022-12-05T08:21:31;23.45;;;12.65;;
62523;SDS011;53689;56.878;60.672;2022-12-05T08:24:03;23.10;;;13.27;;
62523;SDS011;53689;56.878;60.672;2022-12-05T08:26:31;20.80;;;11.30;;
62523;SDS011;53689;56.878;60.672;2022-12-05T08:29:01;21.90;;;12.57;;
62523;SDS011;53689;56.878;60.672;2022-12-05T08:31:32;20.98;;;11.52;;
62523;SDS011;53689;56.878;60.672;2022-12-05T08:34:02;19.55;;;11.13;;
62523;SDS011;53689;56.878;60.672;2022-12-05T08:36:30;21.48;;;12.30;;
62523;SDS011;53689;56.878;60.672;2022-12-05T08:38:59;19.73;;;11.52;;
62523;SDS011;53689;56.878;60.672;2022-12-05T08:41:28;19.17;;;10.63;;
62523;SDS011;53689;56.878;60.672;2022-12-05T08:43:57;19.67;;;10.93;;
62523;SDS011;53689;56.878;60.672;2022-12-05T08:46:26;21.35;;;11.25;;
62523;SDS011;53689;56.878;60.672;2022-12-05T08:48:55;20.42;;;11.45;;
62523;SDS011;53689;56.878;60.672;2022-12-05T08:51:23;21.73;;;10.85;;
62523;SDS011;53689;56.878;60.672;2022-12-05T08:53:53;18.50;;;10.90;;
62523;SDS011;53689;56.878;60.672;2022-12-05T08:56:21;18.65;;;10.95;;
62523;SDS011;53689;56.878;60.672;2022-12-05T08:58:53;18.15;;;10.60;;
62523;SDS011;53689;56.878;60.672;2022-12-05T09:01:29;18.73;;;10.20;;
62523;SDS011;53689;56.878;60.672;2022-12-05T09:03:58;20.17;;;11.20;;
62523;SDS011;53689;56.878;60.672;2022-12-05T09:06:27;19.30;;;10.02;;
62523;SDS011;53689;56.878;60.672;2022-12-05T09:08:56;19.38;;;9.75;;
62523;SDS011;53689;56.878;60.672;2022-12-05T09:13:54;17.55;;;11.05;;
62523;SDS011;53689;56.878;60.672;2022-12-05T09:16:24;20.15;;;10.40;;
62523;SDS011;53689;56.878;60.672;2022-12-05T09:19:00;17.52;;;10.38;;
62523;SDS011;53689;56.878;60.672;2022-12-05T09:23:57;81.15;;;72.55;;
62523;SDS011;53689;56.878;60.672;2022-12-05T09:26:26;61.47;;;55.43;;
62523;SDS011;53689;56.878;60.672;2022-12-05T09:28:56;28.67;;;20.83;;
62523;SDS011;53689;56.878;60.672;2022-12-05T09:31:24;23.40;;;17.48;;
62523;SDS011;53689;56.878;60.672;2022-12-05T09:33:53;20.45;;;14.05;;
62523;SDS011;53689;56.878;60.672;2022-12-05T09:36:23;23.05;;;13.15;;
62523;SDS011;53689;56.878;60.672;2022-12-05T09:38:51;18.05;;;12.45;;
62523;SDS011;53689;56.878;60.672;2022-12-05T09:41:29;18.97;;;13.00;;
62523;SDS011;53689;56.878;60.672;2022-12-05T09:44:16;16.33;;;11.82;;
62523;SDS011;53689;56.878;60.672;2022-12-05T09:46:53;22.10;;;15.00;;
62523;SDS011;53689;56.878;60.672;2022-12-05T09:49:24;47.45;;;42.40;;
62523;SDS011;53689;56.878;60.672;2022-12-05T09:51:54;23.42;;;18.40;;
62523;SDS011;53689;56.878;60.672;2022-12-05T09:54:23;21.73;;;13.48;;
62523;SDS011;53689;56.878;60.672;2022-12-05T09:56:51;19.08;;;12.55;;
62523;SDS011;53689;56.878;60.672;2022-12-05T09:59:19;18.73;;;10.90;;
62523;SDS011;53689;56.878;60.672;2022-12-05T10:01:49;19.80;;;12.77;;
62523;SDS011;53689;56.878;60.672;2022-12-05T10:04:26;20.67;;;11.68;;
62523;SDS011;53689;56.878;60.672;2022-12-05T10:07:10;20.30;;;11.45;;
62523;SDS011;53689;56.878;60.672;2022-12-05T10:09:52;20.08;;;13.45;;
62523;SDS011;53689;56.878;60.672;2022-12-05T10:12:43;19.75;;;12.63;;
62523;SDS011;53689;56.878;60.672;2022-12-05T10:15:22;19.67;;;11.93;;
62523;SDS011;53689;56.878;60.672;2022-12-05T10:17:58;19.95;;;12.90;;
62523;SDS011;53689;56.878;60.672;2022-12-05T10:20:29;21.75;;;12.05;;
62523;SDS011;53689;56.878;60.672;2022-12-05T10:23:04;18.17;;;11.43;;
62523;SDS011;53689;56.878;60.672;2022-12-05T10:25:59;22.08;;;12.63;;
62523;SDS011;53689;56.878;60.672;2022-12-05T10:28:31;20.55;;;13.27;;
62523;SDS011;53689;56.878;60.672;2022-12-05T10:31:04;30.75;;;17.13;;
62523;SDS011;53689;56.878;60.672;2022-12-05T10:33:36;27.63;;;17.48;;
62523;SDS011;53689;56.878;60.672;2022-12-05T10:36:10;28.83;;;18.10;;
62523;SDS011;53689;56.878;60.672;2022-12-05T10:38:40;30.25;;;21.58;;
62523;SDS011;53689;56.878;60.672;2022-12-05T10:41:09;39.92;;;28.55;;
62523;SDS011;53689;56.878;60.672;2022-12-05T10:43:40;39.95;;;27.92;;
62523;SDS011;53689;56.878;60.672;2022-12-05T10:46:09;45.30;;;29.83;;
62523;SDS011;53689;56.878;60.672;2022-12-05T10:48:42;38.15;;;27.17;;
62523;SDS011;53689;56.878;60.672;2022-12-05T10:51:12;45.50;;;30.17;;
62523;SDS011;53689;56.878;60.672;2022-12-05T10:53:43;44.80;;;29.77;;
62523;SDS011;53689;56.878;60.672;2022-12-05T10:59:04;43.72;;;29.52;;
62523;SDS011;53689;56.878;60.672;2022-12-05T11:01:36;43.97;;;27.92;;
62523;SDS011;53689;56.878;60.672;2022-12-05T11:04:07;64.43;;;44.55;;
62523;SDS011;53689;56.878;60.672;2022-12-05T11:06:48;53.20;;;38.53;;
62523;SDS011;53689;56.878;60.672;2022-12-05T11:09:20;47.03;;;35.22;;
62523;SDS011;53689;56.878;60.672;2022-12-05T11:11:56;50.97;;;34.05;;
62523;SDS011;53689;56.878;60.672;2022-12-05T11:14:31;54.13;;;34.40;;
62523;SDS011;53689;56.878;60.672;2022-12-05T11:16:59;51.33;;;35.85;;
62523;SDS011;53689;56.878;60.672;2022-12-05T11:19:30;51.45;;;37.88;;
62523;SDS011;53689;56.878;60.672;2022-12-05T11:21:59;55.10;;;38.58;;
62523;SDS011;53689;56.878;60.672;2022-12-05T11:24:29;44.85;;;32.50;;
62523;SDS011;53689;56.878;60.672;2022-12-05T11:26:59;52.00;;;33.13;;
62523;SDS011;53689;56.878;60.672;2022-12-05T11:29:52;50.25;;;34.15;;
62523;SDS011;53689;56.878;60.672;2022-12-05T11:32:22;43.92;;;31.25;;
62523;SDS011;53689;56.878;60.672;2022-12-05T11:34:52;52.60;;;32.85;;
62523;SDS011;53689;56.878;60.672;2022-12-05T11:37:28;50.53;;;34.92;;
62523;SDS011;53689;56.878;60.672;2022-12-05T11:40:01;49.75;;;35.17;;
62523;SDS011;53689;56.878;60.672;2022-12-05T11:42:39;59.67;;;40.20;;
62523;SDS011;53689;56.878;60.672;2022-12-05T11:45:23;58.00;;;42.33;;
62523;SDS011;53689;56.878;60.672;2022-12-05T11:48:07;44.88;;;36.03;;
62523;SDS011;53689;56.878;60.672;2022-12-05T11:50:44;49.92;;;38.53;;
62523;SDS011;53689;56.878;60.672;2022-12-05T11:53:29;69.15;;;49.53;;
62523;SDS011;53689;56.878;60.672;2022-12-05T11:56:10;64.43;;;47.05;;
62523;SDS011;53689;56.878;60.672;2022-12-05T11:59:01;75.20;;;56.65;;
62523;SDS011;53689;56.878;60.672;2022-12-05T12:01:45;76.22;;;55.88;;
62523;SDS011;53689;56.878;60.672;2022-12-05T12:04:25;96.68;;;66.82;;
62523;SDS011;53689;56.878;60.672;2022-12-05T12:07:08;80.05;;;61.78;;
62523;SDS011;53689;56.878;60.672;2022-12-05T12:09:49;82.18;;;60.65;;
62523;SDS011;53689;56.878;60.672;2022-12-05T12:12:27;105.60;;;76.72;;
62523;SDS011;53689;56.878;60.672;2022-12-05T12:15:08;109.20;;;81.93;;
62523;SDS011;53689;56.878;60.672;2022-12-05T12:17:51;139.75;;;107.30;;
62523;SDS011;53689;56.878;60.672;2022-12-05T12:20:33;207.73;;;158.45;;
62523;SDS011;53689;56.878;60.672;2022-12-05T12:23:14;120.65;;;91.07;;
62523;SDS011;53689;56.878;60.672;2022-12-05T12:25:58;100.85;;;79.57;;
62523;SDS011;53689;56.878;60.672;2022-12-05T12:28:39;107.50;;;82.68;;
62523;SDS011;53689;56.878;60.672;2022-12-05T12:31:18;107.97;;;80.38;;
62523;SDS011;53689;56.878;60.672;2022-12-05T12:33:57;101.22;;;76.15;;
62523;SDS011;53689;56.878;60.672;2022-12-05T12:36:32;88.18;;;66.43;;
62523;SDS011;53689;56.878;60.672;2022-12-05T12:39:09;94.90;;;73.60;;
62523;SDS011;53689;56.878;60.672;2022-12-05T12:41:56;87.40;;;68.50;;
62523;SDS011;53689;56.878;60.672;2022-12-05T12:44:44;85.25;;;65.80;;
62523;SDS011;53689;56.878;60.672;2022-12-05T12:47:37;84.40;;;64.68;;
62523;SDS011;53689;56.878;60.672;2022-12-05T12:50:15;81.28;;;64.85;;
62523;SDS011;53689;56.878;60.672;2022-12-05T12:52:54;77.10;;;59.35;;
62523;SDS011;53689;56.878;60.672;2022-12-05T12:55:37;81.68;;;59.35;;
62523;SDS011;53689;56.878;60.672;2022-12-05T12:58:14;71.32;;;56.70;;
62523;SDS011;53689;56.878;60.672;2022-12-05T13:00:58;75.00;;;56.80;;
62523;SDS011;53689;56.878;60.672;2022-12-05T13:03:33;55.42;;;42.90;;
62523;SDS011;53689;56.878;60.672;2022-12-05T13:06:11;55.55;;;41.85;;
62523;SDS011;53689;56.878;60.672;2022-12-05T13:08:44;52.40;;;41.70;;
62523;SDS011;53689;56.878;60.672;2022-12-05T13:11:15;54.38;;;39.60;;
62523;SDS011;53689;56.878;60.672;2022-12-05T13:13:46;51.42;;;38.50;;
62523;SDS011;53689;56.878;60.672;2022-12-05T13:16:20;47.95;;;37.15;;
62523;SDS011;53689;56.878;60.672;2022-12-05T13:18:51;49.28;;;37.47;;
62523;SDS011;53689;56.878;60.672;2022-12-05T13:21:20;46.13;;;37.60;;
62523;SDS011;53689;56.878;60.672;2022-12-05T13:23:49;42.85;;;34.25;;
62523;SDS011;53689;56.878;60.672;2022-12-05T13:26:20;43.30;;;34.08;;
62523;SDS011;53689;56.878;60.672;2022-12-05T13:31:34;46.17;;;35.92;;
62523;SDS011;53689;56.878;60.672;2022-12-05T13:34:03;47.22;;;37.97;;
62523;SDS011;53689;56.878;60.672;2022-12-05T13:36:37;44.80;;;34.50;;
62523;SDS011;53689;56.878;60.672;2022-12-05T13:39:12;50.78;;;38.92;;
62523;SDS011;53689;56.878;60.672;2022-12-05T13:41:46;47.05;;;37.25;;
62523;SDS011;53689;56.878;60.672;2022-12-05T13:44:17;49.20;;;37.25;;
62523;SDS011;53689;56.878;60.672;2022-12-05T13:46:58;48.65;;;37.40;;
62523;SDS011;53689;56.878;60.672;2022-12-05T13:49:28;50.90;;;36.22;;
62523;SDS011;53689;56.878;60.672;2022-12-05T13:52:05;48.40;;;37.38;;
62523;SDS011;53689;56.878;60.672;2022-12-05T13:54:39;42.63;;;35.00;;
62523;SDS011;53689;56.878;60.672;2022-12-05T14:00:24;48.55;;;33.38;;
62523;SDS011;53689;56.878;60.672;2022-12-05T14:03:01;44.25;;;33.00;;
62523;SDS011;53689;56.878;60.672;2022-12-05T14:05:34;41.95;;;30.98;;
62523;SDS011;53689;56.878;60.672;2022-12-05T14:11:12;40.03;;;29.33;;
62523;SDS011;53689;56.878;60.672;2022-12-05T14:13:41;45.20;;;31.35;;
62523;SDS011;53689;56.878;60.672;2022-12-05T14:19:00;39.95;;;27.45;;
62523;SDS011;53689;56.878;60.672;2022-12-05T14:21:35;37.95;;;27.50;;
62523;SDS011;53689;56.878;60.672;2022-12-05T14:24:09;35.60;;;27.20;;
62523;SDS011;53689;56.878;60.672;2022-12-05T14:26:51;33.75;;;25.75;;
62523;SDS011;53689;56.878;60.672;2022-12-05T14:29:36;33.00;;;24.10;;
62523;SDS011;53689;56.878;60.672;2022-12-05T14:32:09;33.55;;;25.15;;
62523;SDS011;53689;56.878;60.672;2022-12-05T14:34:50;33.25;;;23.42;;
62523;SDS011;53689;56.878;60.672;2022-12-05T14:37:24;32.45;;;23.20;;
62523;SDS011;53689;56.878;60.672;2022-12-05T14:39:55;33.85;;;23.60;;
62523;SDS011;53689;56.878;60.672;2022-12-05T14:42:26;28.13;;;22.15;;
62523;SDS011;53689;56.878;60.672;2022-12-05T14:45:01;26.02;;;21.30;;
62523;SDS011;53689;56.878;60.672;2022-12-05T14:47:49;28.02;;;21.02;;
62523;SDS011;53689;56.878;60.672;2022-12-05T14:55:52;25.77;;;19.08;;
62523;SDS011;53689;56.878;60.672;2022-12-05T14:58:30;25.25;;;18.25;;
62523;SDS011;53689;56.878;60.672;2022-12-05T15:01:04;25.60;;;18.00;;
62523;SDS011;53689;56.878;60.672;2022-12-05T15:03:34;24.00;;;17.88;;
62523;SDS011;53689;56.878;60.672;2022-12-05T15:06:10;20.42;;;17.13;;
62523;SDS011;53689;56.878;60.672;2022-12-05T15:08:42;23.88;;;18.15;;
62523;SDS011;53689;56.878;60.672;2022-12-05T15:11:14;22.27;;;16.95;;
62523;SDS011;53689;56.878;60.672;2022-12-05T15:13:44;21.67;;;16.67;;
62523;SDS011;53689;56.878;60.672;2022-12-05T15:16:12;17.15;;;13.90;;
62523;SDS011;53689;56.878;60.672;2022-12-05T15:18:45;21.33;;;14.55;;
62523;SDS011;53689;56.878;60.672;2022-12-05T15:21:21;18.38;;;13.50;;
62523;SDS011;53689;56.878;60.672;2022-12-05T15:23:54;20.30;;;16.15;;
62523;SDS011;53689;56.878;60.672;2022-12-05T15:26:24;20.33;;;14.43;;